createdAt,value
2023-02-01T00:00:21.990Z,5.30
2023-02-01T00:03:09.674Z,5.30
2023-02-01T00:06:00.414Z,5.10
2023-02-01T00:08:46.715Z,5.30
2023-02-01T00:11:33.238Z,5.00
2023-02-01T00:14:19.449Z,5.00
2023-02-01T00:17:07.831Z,5.30
2023-02-01T00:19:54.293Z,5.40
2023-02-01T00:22:40.390Z,5.50
2023-02-01T00:25:26.740Z,5.60
2023-02-01T00:28:13.946Z,5.60
2023-02-01T00:31:05.438Z,5.60
2023-02-01T00:33:51.509Z,5.60
2023-02-01T00:36:38.163Z,5.60
2023-02-01T00:39:24.690Z,5.60
2023-02-01T00:42:11.220Z,5.50
2023-02-01T00:44:57.814Z,5.70
2023-02-01T00:47:44.022Z,5.80
2023-02-01T00:50:30.084Z,5.60
2023-02-01T00:53:16.514Z,5.40
2023-02-01T00:56:02.615Z,5.30
2023-02-01T00:58:49.151Z,5.30
2023-02-01T01:01:35.625Z,5.60
2023-02-01T01:04:21.786Z,5.70
2023-02-01T01:07:09.360Z,5.60
2023-02-01T01:09:55.798Z,5.50
2023-02-01T01:12:41.951Z,5.50
2023-02-01T01:15:27.547Z,5.70
2023-02-01T01:18:13.927Z,5.60
2023-02-01T01:21:01.043Z,5.70
2023-02-01T01:23:48.528Z,5.80
2023-02-01T01:26:34.979Z,5.90
2023-02-01T01:29:21.382Z,5.60
2023-02-01T01:32:07.942Z,5.50
2023-02-01T01:34:54.517Z,5.60
2023-02-01T01:37:40.894Z,5.40
2023-02-01T01:40:28.293Z,4.80
2023-02-01T01:43:16.866Z,4.80
2023-02-01T01:46:03.290Z,4.70
2023-02-01T01:49:04.144Z,5.00
2023-02-01T01:51:57.216Z,4.90
2023-02-01T01:54:48.277Z,4.70
2023-02-01T01:57:42.771Z,4.90
2023-02-01T02:00:29.795Z,5.00
2023-02-01T02:03:31.280Z,5.10
2023-02-01T02:06:34.083Z,5.20
2023-02-01T02:09:20.674Z,5.20
2023-02-01T02:12:07.361Z,5.10
2023-02-01T02:14:53.723Z,5.20
2023-02-01T02:18:04.634Z,5.30
2023-02-01T02:21:28.251Z,5.20
2023-02-01T02:24:35.335Z,5.10
2023-02-01T02:27:25.777Z,4.90
2023-02-01T02:30:29.736Z,5.00
2023-02-01T02:33:29.727Z,4.90
2023-02-01T02:36:38.945Z,5.00
2023-02-01T02:39:38.432Z,5.00
2023-02-01T02:43:27.337Z,5.10
2023-02-01T02:46:52.013Z,4.90
2023-02-01T02:50:10.498Z,4.90
2023-02-01T02:53:32.791Z,4.90
2023-02-01T02:56:41.023Z,5.10
2023-02-01T02:59:48.227Z,5.20
2023-02-01T03:02:53.922Z,5.30
2023-02-01T03:05:44.870Z,5.10
2023-02-01T03:08:32.605Z,4.90
2023-02-01T03:11:19.411Z,4.90
2023-02-01T03:14:07.890Z,4.80
2023-02-01T03:17:04.781Z,4.80
2023-02-01T03:19:53.904Z,4.60
2023-02-01T03:22:43.603Z,4.30
2023-02-01T03:25:33.601Z,4.50
2023-02-01T03:28:24.524Z,4.60
2023-02-01T03:31:11.001Z,4.70
2023-02-01T03:33:57.522Z,4.70
2023-02-01T03:36:58.197Z,5.30
2023-02-01T03:39:52.912Z,4.80
2023-02-01T03:42:43.317Z,4.70
2023-02-01T03:45:37.095Z,4.60
2023-02-01T03:48:24.306Z,4.80
2023-02-01T03:51:12.249Z,4.90
2023-02-01T03:54:00.079Z,5.20
2023-02-01T03:56:48.860Z,5.10
2023-02-01T03:59:35.191Z,5.20
2023-02-01T04:02:21.459Z,5.10
2023-02-01T04:05:08.278Z,5.10
2023-02-01T04:07:55.267Z,5.10
2023-02-01T04:10:41.423Z,5.00
2023-02-01T04:13:28.468Z,4.90
2023-02-01T04:16:14.626Z,4.80
2023-02-01T04:19:01.450Z,4.70
2023-02-01T04:25:10.101Z,4.40
2023-02-01T04:27:55.904Z,4.40
2023-02-01T04:30:41.887Z,4.60
2023-02-01T04:33:28.277Z,4.30
2023-02-01T04:36:14.459Z,4.80
2023-02-01T04:39:00.531Z,4.30
2023-02-01T04:41:46.830Z,4.40
2023-02-01T04:44:33.552Z,4.40
2023-02-01T04:47:19.821Z,4.60
2023-02-01T04:50:06.997Z,4.60
2023-02-01T04:52:54.024Z,4.60
2023-02-01T04:55:40.310Z,4.60
2023-02-01T04:58:26.307Z,4.40
2023-02-01T05:01:12.700Z,4.30
2023-02-01T05:03:58.523Z,4.20
2023-02-01T05:06:44.507Z,4.20
2023-02-01T05:09:30.991Z,4.30
2023-02-01T05:12:35.695Z,4.40
2023-02-01T05:15:21.521Z,4.60
2023-02-01T05:18:08.197Z,4.50
2023-02-01T05:20:54.137Z,4.90
2023-02-01T05:23:58.628Z,4.50
2023-02-01T05:26:44.894Z,4.80
2023-02-01T05:29:31.438Z,4.50
2023-02-01T05:32:22.459Z,4.60
2023-02-01T05:35:09.723Z,4.70
2023-02-01T05:37:55.773Z,4.30
2023-02-01T05:40:42.513Z,4.60
2023-02-01T05:43:28.992Z,4.60
2023-02-01T05:46:15.745Z,4.70
2023-02-01T05:49:02.467Z,4.60
2023-02-01T05:51:48.887Z,4.50
2023-02-01T05:54:35.552Z,4.50
2023-02-01T05:57:21.723Z,4.40
2023-02-01T06:00:09.475Z,4.40
2023-02-01T06:02:58.983Z,4.40
2023-02-01T06:05:46.116Z,4.40
2023-02-01T06:08:32.364Z,4.40
2023-02-01T06:11:31.675Z,4.20
2023-02-01T06:14:18.769Z,4.20
2023-02-01T06:17:07.260Z,4.40
2023-02-01T06:19:53.409Z,4.40
2023-02-01T06:22:40.560Z,4.50
2023-02-01T06:25:27.107Z,4.50
2023-02-01T06:28:13.271Z,4.30
2023-02-01T06:31:00.073Z,4.20
2023-02-01T06:33:48.200Z,4.10
2023-02-01T06:36:34.011Z,4.10
2023-02-01T06:39:20.386Z,4.10
2023-02-01T06:42:06.316Z,4.20
2023-02-01T06:44:52.849Z,4.10
2023-02-01T06:47:39.211Z,4.10
2023-02-01T06:50:25.442Z,4.00
2023-02-01T06:53:12.160Z,4.20
2023-02-01T06:56:00.798Z,4.30
2023-02-01T06:58:47.955Z,4.30
2023-02-01T07:01:35.083Z,4.20
2023-02-01T07:04:22.639Z,4.30
2023-02-01T07:07:09.955Z,4.30
2023-02-01T07:09:58.122Z,4.20
2023-02-01T07:12:44.620Z,4.10
2023-02-01T07:15:32.896Z,4.30
2023-02-01T07:18:30.144Z,4.60
2023-02-01T07:21:16.116Z,5.20
2023-02-01T07:24:02.437Z,5.70
2023-02-01T07:26:49.434Z,6.10
2023-02-01T07:29:36.178Z,6.60
2023-02-01T07:32:23.713Z,7.20
2023-02-01T07:35:11.063Z,7.10
2023-02-01T07:38:02.515Z,7.20
2023-02-01T07:40:53.481Z,7.80
2023-02-01T07:43:40.133Z,8.60
2023-02-01T07:46:26.399Z,9.10
2023-02-01T07:49:13.696Z,9.70
2023-02-01T07:52:03.443Z,10.10
2023-02-01T07:54:49.890Z,10.40
2023-02-01T07:57:38.000Z,10.50
2023-02-01T08:00:43.930Z,10.40
2023-02-01T08:03:31.444Z,10.20
2023-02-01T08:06:21.261Z,9.80
2023-02-01T08:09:09.852Z,9.80
2023-02-01T08:11:56.430Z,10.50
2023-02-01T08:14:44.047Z,11.60
2023-02-01T08:17:30.877Z,12.00
2023-02-01T08:20:19.018Z,11.90
2023-02-01T08:23:10.673Z,11.60
2023-02-01T08:26:09.793Z,11.90
2023-02-01T08:29:02.542Z,11.80
2023-02-01T08:31:49.009Z,12.30
2023-02-01T08:34:36.029Z,12.90
2023-02-01T08:37:26.023Z,13.40
2023-02-01T08:40:16.418Z,13.70
2023-02-01T08:43:02.504Z,14.30
2023-02-01T08:45:49.058Z,14.50
2023-02-01T08:48:37.488Z,14.40
2023-02-01T08:51:25.526Z,14.40
2023-02-01T08:54:12.073Z,14.10
2023-02-01T08:56:57.712Z,14.60
2023-02-01T08:59:52.573Z,15.70
2023-02-01T09:03:00.513Z,16.40
2023-02-01T09:05:49.679Z,17.40
2023-02-01T09:08:37.155Z,16.60
2023-02-01T09:11:27.027Z,16.10
2023-02-01T09:14:13.253Z,15.80
2023-02-01T09:16:59.267Z,14.90
2023-02-01T09:19:46.224Z,15.10
2023-02-01T09:22:32.485Z,16.10
2023-02-01T09:25:18.909Z,17.70
2023-02-01T09:28:07.448Z,19.60
2023-02-01T09:31:07.073Z,20.20
2023-02-01T09:33:56.369Z,19.60
2023-02-01T09:39:55.111Z,18.80
2023-02-01T09:43:04.587Z,17.40
2023-02-01T09:46:37.815Z,18.80
2023-02-01T09:49:33.392Z,20.30
2023-02-01T09:52:30.281Z,19.90
2023-02-01T09:55:54.784Z,20.00
2023-02-01T09:58:54.431Z,20.00
2023-02-01T10:04:41.744Z,20.60
2023-02-01T10:07:38.289Z,20.20
2023-02-01T10:10:44.833Z,19.60
2023-02-01T10:13:45.971Z,20.90
2023-02-01T10:16:41.609Z,19.50
2023-02-01T10:19:59.184Z,20.40
2023-02-01T10:23:11.397Z,19.50
2023-02-01T10:26:02.869Z,17.60
2023-02-01T10:29:02.967Z,14.90
2023-02-01T10:31:50.075Z,12.80
2023-02-01T10:34:40.649Z,11.80
2023-02-01T10:37:31.916Z,11.40
2023-02-01T10:40:26.186Z,11.00
2023-02-01T10:43:16.033Z,10.50
2023-02-01T10:46:03.473Z,10.60
2023-02-01T10:48:54.830Z,10.70
2023-02-01T10:51:57.940Z,10.40
2023-02-01T11:30:07.070Z,10.60
2023-02-01T11:32:53.420Z,10.70
2023-02-01T11:35:41.139Z,10.50
2023-02-01T11:38:32.187Z,10.50
2023-02-01T11:41:25.868Z,10.90
2023-02-01T11:44:32.830Z,11.10
2023-02-01T11:47:32.655Z,11.20
2023-02-01T11:50:23.603Z,11.10
2023-02-01T11:53:19.725Z,11.10
2023-02-01T11:56:25.603Z,11.00
2023-02-01T11:59:56.303Z,11.00
2023-02-01T12:03:03.370Z,11.10
2023-02-01T12:06:09.894Z,11.40
2023-02-01T12:09:24.418Z,11.50
2023-02-01T12:12:33.414Z,11.60
2023-02-01T12:15:24.911Z,11.60
2023-02-01T12:18:31.238Z,11.30
2023-02-01T12:21:49.322Z,11.30
2023-02-01T12:25:15.990Z,11.60
2023-02-01T12:28:20.585Z,11.70
2023-02-01T12:31:25.559Z,11.40
2023-02-01T12:34:16.335Z,11.60
2023-02-01T12:37:16.057Z,11.80
2023-02-01T12:40:17.989Z,11.90
2023-02-01T12:43:26.229Z,11.90
2023-02-01T12:46:34.939Z,12.00
2023-02-01T12:49:30.585Z,11.90
2023-02-01T12:52:40.752Z,11.90
2023-02-01T12:55:46.949Z,12.10
2023-02-01T12:58:55.974Z,12.00
2023-02-01T13:01:53.620Z,12.00
2023-02-01T13:05:05.511Z,11.90
2023-02-01T13:08:09.046Z,11.80
2023-02-01T13:11:15.264Z,12.20
2023-02-01T13:14:33.459Z,12.20
2023-02-01T13:17:29.657Z,12.00
2023-02-01T13:20:34.299Z,11.90
2023-02-01T13:23:30.533Z,11.40
2023-02-01T13:26:16.415Z,11.50
2023-02-01T13:29:11.176Z,11.90
2023-02-01T13:32:06.261Z,12.10
2023-02-01T13:35:20.448Z,12.10
2023-02-01T13:38:31.520Z,12.20
2023-02-01T13:41:31.113Z,12.20
2023-02-01T13:44:25.532Z,12.30
2023-02-01T13:47:42.330Z,12.40
2023-02-01T13:50:35.019Z,12.50
2023-02-01T13:53:32.854Z,12.40
2023-02-01T13:56:25.534Z,12.10
2023-02-01T13:59:50.003Z,11.50
2023-02-01T14:02:43.210Z,12.10
2023-02-01T14:05:35.486Z,12.30
2023-02-01T14:08:45.526Z,12.60
2023-02-01T14:11:54.708Z,12.40
2023-02-01T14:14:41.953Z,12.70
2023-02-01T14:17:35.377Z,12.60
2023-02-01T14:20:40.904Z,12.40
2023-02-01T14:23:29.092Z,12.10
2023-02-01T14:26:20.027Z,12.20
2023-02-01T14:29:22.033Z,11.90
2023-02-01T14:32:16.003Z,11.70
2023-02-01T14:35:07.483Z,11.90
2023-02-01T14:37:59.783Z,11.80
2023-02-01T14:40:46.468Z,11.90
2023-02-01T14:43:52.551Z,12.00
2023-02-01T14:47:04.308Z,12.20
2023-02-01T14:50:02.083Z,12.40
2023-02-01T14:53:10.076Z,12.20
2023-02-01T14:56:11.633Z,12.20
2023-02-01T14:59:17.337Z,12.30
2023-02-01T15:02:24.224Z,12.30
2023-02-01T15:05:25.759Z,12.30
2023-02-01T15:08:23.601Z,12.30
2023-02-01T15:11:16.765Z,12.20
2023-02-01T15:14:04.835Z,12.30
2023-02-01T15:16:55.063Z,12.30
2023-02-01T15:20:00.679Z,12.60
2023-02-01T15:23:06.795Z,12.60
2023-02-01T15:25:53.950Z,12.70
2023-02-01T15:28:39.956Z,12.70
2023-02-01T15:31:39.801Z,12.30
2023-02-01T15:34:52.129Z,12.10
2023-02-01T15:37:38.382Z,12.20
2023-02-01T15:40:25.569Z,12.20
2023-02-01T15:43:14.218Z,12.20
2023-02-01T15:46:02.623Z,12.00
2023-02-01T15:49:18.568Z,11.90
2023-02-01T15:52:39.864Z,12.10
2023-02-01T15:55:43.607Z,11.90
2023-02-01T15:58:30.821Z,11.80
2023-02-01T16:01:17.549Z,11.70
2023-02-01T16:04:22.772Z,11.60
2023-02-01T16:07:34.316Z,11.60
2023-02-01T16:10:28.626Z,11.70
2023-02-01T16:13:19.318Z,11.90
2023-02-01T16:16:09.145Z,12.00
2023-02-01T16:18:56.103Z,11.80
2023-02-01T16:21:43.067Z,11.60
2023-02-01T16:24:29.512Z,11.30
2023-02-01T16:27:15.593Z,11.30
2023-02-01T16:30:02.932Z,11.30
2023-02-01T16:32:50.342Z,11.40
2023-02-01T16:35:38.816Z,11.30
2023-02-01T16:38:25.205Z,11.20
2023-02-01T16:41:16.044Z,11.30
2023-02-01T16:44:02.328Z,11.40
2023-02-01T16:46:49.682Z,11.20
2023-02-01T16:49:35.370Z,11.10
2023-02-01T16:52:28.400Z,11.00
2023-02-01T16:55:17.897Z,11.00
2023-02-01T16:58:03.782Z,10.90
2023-02-01T17:00:52.057Z,10.90
2023-02-01T17:03:38.556Z,10.80
2023-02-01T17:06:26.271Z,10.90
2023-02-01T17:09:12.242Z,11.00
2023-02-01T17:11:58.376Z,11.10
2023-02-01T17:14:44.303Z,11.30
2023-02-01T17:17:39.812Z,11.40
2023-02-01T17:20:29.286Z,11.40
2023-02-01T17:23:16.693Z,11.20
2023-02-01T17:26:03.523Z,11.10
2023-02-01T17:28:49.312Z,10.90
2023-02-01T17:31:43.242Z,10.80
2023-02-01T17:34:29.420Z,10.80
2023-02-01T17:37:32.681Z,10.90
2023-02-01T17:40:19.229Z,10.80
2023-02-01T17:43:05.759Z,10.80
2023-02-01T17:46:10.519Z,10.60
2023-02-01T17:48:59.110Z,10.40
2023-02-01T17:51:45.493Z,10.30
2023-02-01T17:54:31.666Z,10.20
2023-02-01T17:57:18.138Z,10.00
2023-02-01T18:00:04.530Z,10.00
2023-02-01T18:02:50.754Z,9.90
2023-02-01T18:05:41.384Z,9.80
2023-02-01T18:08:29.808Z,9.70
2023-02-01T18:11:21.442Z,9.50
2023-02-01T18:14:07.475Z,9.50
2023-02-01T18:16:53.915Z,9.20
2023-02-01T18:19:41.205Z,8.90
2023-02-01T18:22:27.575Z,8.90
2023-02-01T18:25:37.258Z,8.80
2023-02-01T18:28:23.430Z,8.70
2023-02-01T18:31:31.465Z,8.70
2023-02-01T18:34:22.458Z,8.90
2023-02-01T18:37:08.226Z,9.10
2023-02-01T18:39:54.255Z,8.90
2023-02-01T18:42:40.551Z,8.60
2023-02-01T18:45:46.186Z,8.70
2023-02-01T18:48:32.171Z,8.70
2023-02-01T18:51:20.425Z,8.60
2023-02-01T18:54:06.450Z,8.50
2023-02-01T18:56:52.677Z,8.50
2023-02-01T18:59:38.984Z,8.50
2023-02-01T19:02:30.079Z,8.50
2023-02-01T19:05:16.846Z,8.50
2023-02-01T19:08:03.070Z,8.50
2023-02-01T19:10:57.089Z,8.40
2023-02-01T19:13:43.430Z,8.40
2023-02-01T19:16:30.414Z,8.30
2023-02-01T19:19:17.044Z,7.70
2023-02-01T19:22:07.204Z,8.00
2023-02-01T19:24:55.272Z,8.00
2023-02-01T19:27:42.322Z,7.00
2023-02-01T19:30:29.527Z,8.00
2023-02-01T19:33:17.936Z,8.10
2023-02-01T19:36:09.365Z,8.10
2023-02-01T19:38:56.153Z,8.10
2023-02-01T19:41:42.692Z,8.20
2023-02-01T19:44:28.964Z,8.10
2023-02-01T19:47:15.856Z,8.10
2023-02-01T19:50:02.615Z,8.00
2023-02-01T19:52:49.845Z,8.10
2023-02-01T19:55:36.040Z,7.90
2023-02-01T19:58:21.745Z,7.80
2023-02-01T20:01:07.201Z,7.80
2023-02-01T20:03:53.492Z,7.70
2023-02-01T20:06:51.466Z,7.70
2023-02-01T20:09:55.566Z,7.70
2023-02-01T20:12:55.644Z,7.90
2023-02-01T20:15:46.194Z,8.00
2023-02-01T20:18:40.513Z,8.00
2023-02-01T20:21:28.105Z,7.90
2023-02-01T20:24:18.168Z,8.00
2023-02-01T20:27:14.719Z,8.20
2023-02-01T20:30:08.929Z,8.30
2023-02-01T20:32:55.517Z,8.20
2023-02-01T20:35:45.471Z,8.30
2023-02-01T20:38:31.089Z,8.20
2023-02-01T20:41:16.636Z,8.00
2023-02-01T20:44:02.307Z,8.20
2023-02-01T20:46:48.420Z,8.40
2023-02-01T20:49:37.915Z,8.30
2023-02-01T20:52:23.823Z,8.30
2023-02-01T20:55:10.758Z,8.10
2023-02-01T20:57:56.707Z,8.00
2023-02-01T21:00:42.856Z,7.80
2023-02-01T21:03:29.337Z,7.90
2023-02-01T21:06:15.469Z,7.80
2023-02-01T21:09:01.897Z,7.90
2023-02-01T21:11:48.808Z,8.00
2023-02-01T21:14:34.816Z,8.10
2023-02-01T21:17:21.631Z,8.20
2023-02-01T21:20:08.701Z,8.00
2023-02-01T21:22:55.851Z,7.50
2023-02-01T21:25:43.396Z,7.30
2023-02-01T21:28:29.028Z,6.50
2023-02-01T21:31:17.241Z,6.40
2023-02-01T21:34:03.881Z,6.70
2023-02-01T21:36:49.715Z,6.60
2023-02-01T21:39:35.723Z,6.60
2023-02-01T21:42:24.421Z,6.40
2023-02-01T21:45:11.696Z,6.70
2023-02-01T21:47:57.666Z,6.40
2023-02-01T21:50:43.618Z,6.30
2023-02-01T21:53:29.497Z,6.80
2023-02-01T21:56:15.605Z,6.90
2023-02-01T21:59:01.964Z,6.70
2023-02-01T22:01:47.649Z,6.60
2023-02-01T22:04:33.724Z,6.10
2023-02-01T22:07:19.604Z,6.10
2023-02-01T22:10:06.532Z,6.60
2023-02-01T22:12:52.422Z,6.80
2023-02-01T22:15:39.091Z,6.60
2023-02-01T22:18:24.989Z,6.20
2023-02-01T22:21:10.972Z,6.60
2023-02-01T22:23:59.575Z,6.80
2023-02-01T22:26:45.709Z,6.70
2023-02-01T22:29:31.699Z,6.70
2023-02-01T22:32:17.454Z,6.60
2023-02-01T22:35:04.677Z,6.70
2023-02-01T22:37:50.284Z,6.40
2023-02-01T22:40:36.704Z,6.70
2023-02-01T22:43:22.218Z,6.40
2023-02-01T22:46:12.716Z,6.50
2023-02-01T22:48:59.486Z,6.40
2023-02-01T22:51:45.279Z,6.30
2023-02-01T22:54:30.865Z,6.60
2023-02-01T22:57:16.530Z,6.80
2023-02-01T23:00:02.600Z,6.80
2023-02-01T23:02:48.543Z,6.70
2023-02-01T23:05:34.257Z,6.90
2023-02-01T23:08:20.541Z,6.70
2023-02-01T23:11:09.709Z,6.60
2023-02-01T23:13:56.656Z,6.30
2023-02-01T23:16:45.047Z,6.20
2023-02-01T23:19:32.079Z,6.20
2023-02-01T23:22:17.982Z,6.60
2023-02-01T23:25:04.260Z,6.90
2023-02-01T23:27:50.153Z,6.80
2023-02-01T23:30:35.941Z,7.00
2023-02-01T23:33:26.637Z,7.00
2023-02-01T23:36:17.405Z,6.80
2023-02-01T23:39:03.784Z,6.50
2023-02-01T23:41:49.531Z,6.50
2023-02-01T23:44:35.161Z,6.60
2023-02-01T23:47:21.046Z,6.50
2023-02-01T23:50:06.969Z,5.40
2023-02-01T23:52:52.666Z,5.70
2023-02-01T23:55:38.357Z,5.40
2023-02-01T23:58:24.765Z,6.00
